createdAt,value
2023-07-16T00:00:45.395Z,98236.66
2023-07-16T00:03:12.434Z,98234.97
2023-07-16T00:05:39.653Z,98234.09
2023-07-16T00:08:06.666Z,98233.63
2023-07-16T00:10:37.832Z,98229.97
2023-07-16T00:13:05.500Z,98223.97
2023-07-16T00:15:32.701Z,98218.34
2023-07-16T00:17:59.590Z,98217.87
2023-07-16T00:20:26.557Z,98215.81
2023-07-16T00:22:53.422Z,98199.84
2023-07-16T00:25:20.315Z,98210.91
2023-07-16T00:27:47.677Z,98213.22
2023-07-16T00:30:14.509Z,98208.38
2023-07-16T00:32:41.449Z,98220.25
2023-07-16T00:35:08.854Z,98211.47
2023-07-16T00:37:36.384Z,98211.75
2023-07-16T00:40:03.364Z,98208.09
2023-07-16T00:42:30.203Z,98206.84
2023-07-16T00:44:57.038Z,98200.72
2023-07-16T00:47:23.952Z,98205.41
2023-07-16T00:49:51.510Z,98201.75
2023-07-16T00:52:22.159Z,98211.59
2023-07-16T00:54:49.948Z,98201.56
2023-07-16T00:57:16.896Z,98199.53
2023-07-16T00:59:44.349Z,98204.63
2023-07-16T01:02:11.577Z,98202.13
2023-07-16T01:04:38.987Z,98209.19
2023-07-16T01:07:09.666Z,98199.63
2023-07-16T01:09:42.318Z,98188.06
2023-07-16T01:12:10.654Z,98194.41
2023-07-16T01:14:38.539Z,98198.69
2023-07-16T01:17:07.879Z,98188.75
2023-07-16T01:19:36.084Z,98197.81
2023-07-16T01:22:29.834Z,98193.41
2023-07-16T01:25:05.609Z,98185.44
2023-07-16T01:27:44.243Z,98197.28
2023-07-16T01:30:17.005Z,98197.59
2023-07-16T01:32:45.293Z,98192.41
2023-07-16T01:35:13.536Z,98194.66
2023-07-16T01:37:41.776Z,98194.66
2023-07-16T01:40:10.422Z,98198.53
2023-07-16T01:42:37.281Z,98187.75
2023-07-16T01:45:04.459Z,98182.94
2023-07-16T01:47:49.912Z,98182.84
2023-07-16T01:50:16.867Z,98181.13
2023-07-16T01:52:43.669Z,98181.84
2023-07-16T01:55:10.512Z,98180.59
2023-07-16T01:57:37.286Z,98180.50
2023-07-16T02:00:04.437Z,98165.34
2023-07-16T02:02:31.324Z,98164.00
2023-07-16T02:04:58.296Z,98168.66
2023-07-16T02:07:25.598Z,98157.44
2023-07-16T02:09:52.537Z,98169.63
2023-07-16T02:12:19.373Z,98166.72
2023-07-16T02:14:46.221Z,98171.03
2023-07-16T02:17:13.050Z,98166.19
2023-07-16T02:19:39.865Z,98170.13
2023-07-16T02:22:06.752Z,98168.44
2023-07-16T02:24:33.645Z,98169.56
2023-07-16T02:27:00.510Z,98161.94
2023-07-16T02:29:27.276Z,98155.41
2023-07-16T02:31:54.105Z,98155.31
2023-07-16T02:34:20.969Z,98153.69
2023-07-16T02:36:47.808Z,98152.44
2023-07-16T02:39:14.576Z,98155.13
2023-07-16T02:41:41.642Z,98164.94
2023-07-16T02:44:10.717Z,98160.91
2023-07-16T02:46:37.693Z,98150.06
2023-07-16T02:49:05.789Z,98149.16
2023-07-16T02:51:32.608Z,98159.00
2023-07-16T02:53:59.487Z,98168.84
2023-07-16T02:56:26.387Z,98160.78
2023-07-16T02:58:53.286Z,98161.44
2023-07-16T03:01:20.302Z,98174.06
2023-07-16T03:03:47.204Z,98167.25
2023-07-16T03:06:14.189Z,98174.63
2023-07-16T03:08:41.163Z,98173.38
2023-07-16T03:11:08.176Z,98181.59
2023-07-16T03:13:35.023Z,98189.47
2023-07-16T03:16:01.860Z,98191.31
2023-07-16T03:21:15.072Z,98189.91
2023-07-16T03:23:41.907Z,98183.22
2023-07-16T03:26:08.770Z,98190.28
2023-07-16T03:28:35.663Z,98186.25
2023-07-16T03:31:02.711Z,98184.97
2023-07-16T03:33:29.540Z,98196.41
2023-07-16T03:35:56.463Z,98206.94
2023-07-16T03:38:23.317Z,98200.59
2023-07-16T03:40:51.383Z,98206.47
2023-07-16T03:43:18.667Z,98203.72
2023-07-16T03:45:45.490Z,98213.19
2023-07-16T03:48:12.468Z,98209.13
2023-07-16T03:50:39.446Z,98202.75
2023-07-16T03:53:06.380Z,98201.94
2023-07-16T03:55:33.219Z,98205.88
2023-07-16T03:57:59.941Z,98205.19
2023-07-16T04:00:26.821Z,98219.53
2023-07-16T04:02:53.808Z,98213.19
2023-07-16T04:05:24.033Z,98214.31
2023-07-16T04:07:51.028Z,98205.31
2023-07-16T04:10:17.832Z,98214.44
2023-07-16T04:12:44.652Z,98225.19
2023-07-16T04:15:12.912Z,98224.84
2023-07-16T04:17:39.839Z,98227.25
2023-07-16T04:20:07.752Z,98227.72
2023-07-16T04:22:36.670Z,98236.03
2023-07-16T04:25:05.044Z,98232.09
2023-07-16T04:27:32.080Z,98231.03
2023-07-16T04:29:58.986Z,98245.00
2023-07-16T04:32:25.858Z,98241.53
2023-07-16T04:34:52.684Z,98237.28
2023-07-16T04:37:19.513Z,98236.59
2023-07-16T04:39:46.407Z,98240.28
2023-07-16T04:42:13.251Z,98241.53
2023-07-16T04:44:40.137Z,98243.28
2023-07-16T04:47:07.000Z,98260.03
2023-07-16T04:49:37.181Z,98250.66
2023-07-16T04:52:04.326Z,98259.12
2023-07-16T04:54:36.375Z,98252.50
2023-07-16T04:57:03.305Z,98257.00
2023-07-16T04:59:30.122Z,98262.31
2023-07-16T05:01:57.033Z,98260.44
2023-07-16T05:04:23.970Z,98258.59
2023-07-16T05:06:50.965Z,98254.75
2023-07-16T05:09:17.845Z,98273.13
2023-07-16T05:11:44.678Z,98288.72
2023-07-16T05:14:11.458Z,98307.09
2023-07-16T05:16:38.387Z,98319.13
2023-07-16T05:19:05.504Z,98339.09
2023-07-16T05:21:32.291Z,98326.94
2023-07-16T05:23:59.064Z,98322.78
2023-07-16T05:26:25.938Z,98318.94
2023-07-16T05:28:52.800Z,98327.84
2023-07-16T05:31:19.589Z,98335.94
2023-07-16T05:33:46.440Z,98346.41
2023-07-16T05:36:13.284Z,98343.84
2023-07-16T05:38:40.390Z,98343.59
2023-07-16T05:41:07.322Z,98341.38
2023-07-16T05:43:34.299Z,98353.47
2023-07-16T05:46:01.173Z,98363.53
2023-07-16T05:48:28.112Z,98365.34
2023-07-16T05:50:54.965Z,98356.75
2023-07-16T05:53:21.721Z,98366.81
2023-07-16T05:55:50.734Z,98373.72
2023-07-16T05:58:17.806Z,98372.69
2023-07-16T06:00:44.748Z,98378.44
2023-07-16T06:03:11.653Z,98383.34
2023-07-16T06:05:38.508Z,98392.25
2023-07-16T06:08:05.457Z,98404.72
2023-07-16T06:10:35.281Z,98417.22
2023-07-16T06:13:02.101Z,98430.47
2023-07-16T06:15:28.964Z,98436.56
2023-07-16T06:17:55.824Z,98435.88
2023-07-16T06:20:22.720Z,98441.53
2023-07-16T06:22:49.647Z,98445.25
2023-07-16T06:25:16.632Z,98453.31
2023-07-16T06:27:43.487Z,98455.47
2023-07-16T06:30:10.491Z,98459.63
2023-07-16T06:32:37.378Z,98469.31
2023-07-16T06:35:04.504Z,98467.84
2023-07-16T06:37:31.349Z,98468.37
2023-07-16T06:39:58.466Z,98466.97
2023-07-16T06:42:25.329Z,98467.94
2023-07-16T06:44:52.268Z,98480.78
2023-07-16T06:47:19.234Z,98476.91
2023-07-16T06:49:46.050Z,98481.44
2023-07-16T06:52:23.973Z,98488.69
2023-07-16T06:54:50.836Z,98484.81
2023-07-16T06:57:17.715Z,98492.09
2023-07-16T06:59:45.267Z,98488.66
2023-07-16T07:02:13.348Z,98485.22
2023-07-16T07:04:40.178Z,98504.91
2023-07-16T07:07:07.668Z,98497.50
2023-07-16T07:09:34.626Z,98490.47
2023-07-16T07:12:01.679Z,98500.97
2023-07-16T07:14:28.535Z,98498.69
2023-07-16T07:16:55.460Z,98499.59
2023-07-16T07:19:22.381Z,98494.56
2023-07-16T07:21:49.272Z,98495.06
2023-07-16T07:24:16.071Z,98494.03
2023-07-16T07:26:43.009Z,98493.34
2023-07-16T07:29:09.920Z,98497.50
2023-07-16T07:31:36.939Z,98500.34
2023-07-16T07:34:03.929Z,98491.66
2023-07-16T07:36:30.756Z,98485.78
2023-07-16T07:38:57.568Z,98488.62
2023-07-16T07:41:24.414Z,98494.75
2023-07-16T07:43:51.252Z,98500.81
2023-07-16T07:46:18.290Z,98498.56
2023-07-16T07:48:45.366Z,98495.09
2023-07-16T07:51:12.158Z,98492.81
2023-07-16T07:53:39.889Z,98495.28
2023-07-16T07:56:06.846Z,98499.37
2023-07-16T07:58:33.774Z,98513.03
2023-07-16T08:01:10.296Z,98514.69
2023-07-16T08:03:37.410Z,98514.34
2023-07-16T08:06:04.540Z,98516.81
2023-07-16T08:08:31.394Z,98512.53
2023-07-16T08:10:58.479Z,98528.16
2023-07-16T08:13:25.420Z,98522.25
2023-07-16T08:15:52.273Z,98527.97
2023-07-16T08:18:19.223Z,98528.81
2023-07-16T08:20:47.914Z,98533.22
2023-07-16T08:23:15.156Z,98520.16
2023-07-16T08:25:42.147Z,98525.00
2023-07-16T08:28:09.054Z,98533.00
2023-07-16T08:30:35.832Z,98524.81
2023-07-16T08:33:02.754Z,98525.28
2023-07-16T08:35:29.586Z,98530.56
2023-07-16T08:37:56.429Z,98528.69
2023-07-16T08:40:25.213Z,98531.91
2023-07-16T08:42:52.308Z,98531.66
2023-07-16T08:45:23.166Z,98538.53
2023-07-16T08:47:50.393Z,98547.78
2023-07-16T08:50:17.877Z,98545.47
2023-07-16T08:52:45.904Z,98537.94
2023-07-16T08:55:12.777Z,98540.81
2023-07-16T08:57:41.007Z,98550.88
2023-07-16T09:00:08.829Z,98563.34
2023-07-16T09:02:35.801Z,98553.44
2023-07-16T09:05:03.339Z,98553.13
2023-07-16T09:07:30.173Z,98556.03
2023-07-16T09:10:01.198Z,98562.94
2023-07-16T09:12:29.127Z,98557.41
2023-07-16T09:14:56.189Z,98561.91
2023-07-16T09:17:27.343Z,98560.00
2023-07-16T09:19:54.621Z,98570.88
2023-07-16T09:22:21.898Z,98572.94
2023-07-16T09:24:49.287Z,98575.81
2023-07-16T09:27:16.211Z,98582.69
2023-07-16T09:29:43.077Z,98581.16
2023-07-16T09:32:10.086Z,98584.44
2023-07-16T09:34:37.319Z,98586.94
2023-07-16T09:37:06.196Z,98593.78
2023-07-16T09:39:34.502Z,98587.84
2023-07-16T09:42:03.611Z,98591.94
2023-07-16T09:44:31.284Z,98597.19
2023-07-16T09:46:58.178Z,98593.22
2023-07-16T09:49:29.332Z,98600.13
2023-07-16T09:51:58.046Z,98608.59
2023-07-16T09:54:26.575Z,98593.44
2023-07-16T09:56:59.690Z,98599.91
2023-07-16T09:59:29.974Z,98601.16
2023-07-16T10:01:58.443Z,98606.03
2023-07-16T10:04:25.807Z,98612.91
2023-07-16T10:06:57.400Z,98604.56
2023-07-16T10:09:34.118Z,98607.41
2023-07-16T10:12:14.527Z,98599.84
2023-07-16T10:14:49.076Z,98603.91
2023-07-16T10:17:23.839Z,98594.31
2023-07-16T10:20:08.898Z,98592.72
2023-07-16T10:22:44.096Z,98605.22
2023-07-16T10:25:20.098Z,98601.25
2023-07-16T10:27:48.578Z,98597.66
2023-07-16T10:30:15.749Z,98599.69
2023-07-16T10:32:43.055Z,98595.31
2023-07-16T10:35:10.623Z,98594.12
2023-07-16T10:37:38.478Z,98592.91
2023-07-16T10:40:06.897Z,98597.75
2023-07-16T10:42:34.051Z,98602.59
2023-07-16T10:45:03.678Z,98594.56
2023-07-16T10:47:35.957Z,98588.97
2023-07-16T10:50:10.733Z,98595.44
2023-07-16T10:52:38.872Z,98594.62
2023-07-16T10:55:06.359Z,98597.84
2023-07-16T10:57:33.282Z,98591.00
2023-07-16T11:00:01.494Z,98589.81
2023-07-16T11:02:28.990Z,98584.19
2023-07-16T11:04:56.069Z,98572.12
2023-07-16T11:07:23.237Z,98581.00
2023-07-16T11:09:51.996Z,98579.00
2023-07-16T11:12:22.351Z,98582.59
2023-07-16T11:14:51.079Z,98576.13
2023-07-16T11:17:18.015Z,98583.37
2023-07-16T11:19:50.040Z,98588.19
2023-07-16T11:22:17.540Z,98586.56
2023-07-16T11:24:49.527Z,98584.91
2023-07-16T11:27:24.615Z,98582.94
2023-07-16T11:29:54.658Z,98586.53
2023-07-16T11:32:33.733Z,98586.50
2023-07-16T11:35:02.548Z,98588.09
2023-07-16T11:37:31.042Z,98584.03
2023-07-16T11:40:08.056Z,98581.59
2023-07-16T11:42:39.583Z,98580.75
2023-07-16T11:45:16.738Z,98575.94
2023-07-16T11:47:44.944Z,98576.28
2023-07-16T11:50:12.493Z,98577.47
2023-07-16T11:52:40.172Z,98571.81
2023-07-16T11:55:07.629Z,98577.84
2023-07-16T11:57:35.325Z,98585.06
2023-07-16T12:00:04.338Z,98576.97
2023-07-16T12:02:31.489Z,98572.53
2023-07-16T12:04:58.356Z,98571.69
2023-07-16T12:07:33.208Z,98574.06
2023-07-16T12:10:00.364Z,98571.66
2023-07-16T12:12:27.176Z,98563.19
2023-07-16T12:14:53.983Z,98569.56
2023-07-16T12:17:20.964Z,98566.72
2023-07-16T12:19:47.990Z,98570.72
2023-07-16T12:22:18.758Z,98573.13
2023-07-16T12:24:46.415Z,98563.00
2023-07-16T12:27:13.250Z,98569.41
2023-07-16T12:29:40.097Z,98567.34
2023-07-16T12:32:07.537Z,98564.47
2023-07-16T12:34:35.691Z,98571.31
2023-07-16T12:37:03.687Z,98564.81
2023-07-16T12:39:30.608Z,98570.41
2023-07-16T12:41:57.438Z,98570.81
2023-07-16T12:44:24.339Z,98569.53
2023-07-16T12:46:51.200Z,98571.91
2023-07-16T12:49:19.260Z,98568.63
2023-07-16T12:51:46.156Z,98570.97
2023-07-16T12:54:12.991Z,98572.97
2023-07-16T12:56:40.298Z,98569.28
2023-07-16T12:59:07.220Z,98566.03
2023-07-16T13:01:34.257Z,98564.75
2023-07-16T13:04:01.403Z,98575.19
2023-07-16T13:06:28.944Z,98575.97
2023-07-16T13:08:56.198Z,98575.97
2023-07-16T13:11:23.272Z,98590.41
2023-07-16T13:13:50.173Z,98583.53
2023-07-16T13:16:17.489Z,98585.50
2023-07-16T13:18:44.850Z,98589.88
2023-07-16T13:21:11.991Z,98589.84
2023-07-16T13:23:39.016Z,98584.50
2023-07-16T13:26:06.076Z,98580.03
2023-07-16T13:28:33.394Z,98583.63
2023-07-16T13:31:01.234Z,98582.38
2023-07-16T13:33:28.419Z,98583.16
2023-07-16T13:35:55.888Z,98584.69
2023-07-16T13:38:23.148Z,98591.91
2023-07-16T13:40:50.114Z,98578.91
2023-07-16T13:43:17.137Z,98578.84
2023-07-16T13:45:44.611Z,98568.72
2023-07-16T13:48:12.138Z,98570.69
2023-07-16T13:50:39.297Z,98571.44
2023-07-16T13:53:06.599Z,98569.78
2023-07-16T13:55:33.414Z,98559.63
2023-07-16T13:58:00.471Z,98562.44
2023-07-16T14:00:27.515Z,98557.53
2023-07-16T14:02:54.878Z,98555.44
2023-07-16T14:05:22.131Z,98554.97
2023-07-16T14:07:50.729Z,98552.87
2023-07-16T14:10:18.240Z,98558.50
2023-07-16T14:12:45.563Z,98554.44
2023-07-16T14:15:13.256Z,98554.81
2023-07-16T14:17:40.652Z,98554.75
2023-07-16T14:20:08.311Z,98561.16
2023-07-16T14:22:35.708Z,98557.09
2023-07-16T14:25:03.673Z,98552.59
2023-07-16T14:27:32.952Z,98553.34
2023-07-16T14:30:06.297Z,98563.44
2023-07-16T14:32:35.577Z,98561.34
2023-07-16T14:35:03.157Z,98562.53
2023-07-16T14:37:30.528Z,98554.41
2023-07-16T14:39:58.051Z,98552.75
2023-07-16T14:42:25.103Z,98547.03
2023-07-16T14:44:52.444Z,98543.00
2023-07-16T14:47:19.286Z,98537.69
2023-07-16T14:49:46.359Z,98531.16
2023-07-16T14:52:13.715Z,98521.81
2023-07-16T14:54:41.268Z,98523.41
2023-07-16T14:57:08.325Z,98517.66
2023-07-16T14:59:36.356Z,98520.88
2023-07-16T15:02:06.681Z,98526.12
2023-07-16T15:04:34.005Z,98524.44
2023-07-16T15:07:01.464Z,98526.03
2023-07-16T15:09:29.035Z,98529.25
2023-07-16T15:11:56.052Z,98523.94
2023-07-16T15:14:22.957Z,98528.81
2023-07-16T15:16:50.516Z,98523.06
2023-07-16T15:19:19.646Z,98519.72
2023-07-16T15:21:47.045Z,98527.47
2023-07-16T15:24:14.123Z,98520.41
2023-07-16T15:26:42.399Z,98525.31
2023-07-16T15:29:10.209Z,98522.09
2023-07-16T15:31:37.414Z,98523.69
2023-07-16T15:34:05.156Z,98521.22
2023-07-16T15:36:32.508Z,98528.47
2023-07-16T15:38:59.504Z,98529.63
2023-07-16T15:41:29.027Z,98530.87
2023-07-16T15:43:56.408Z,98528.41
2023-07-16T15:46:23.553Z,98516.66
2023-07-16T15:48:50.800Z,98520.28
2023-07-16T15:51:17.995Z,98515.00
2023-07-16T15:53:45.073Z,98521.81
2023-07-16T15:56:12.835Z,98522.63
2023-07-16T15:58:40.558Z,98531.47
2023-07-16T16:01:10.468Z,98522.53
2023-07-16T16:03:37.875Z,98522.53
2023-07-16T16:06:05.265Z,98514.84
2023-07-16T16:08:35.667Z,98518.84
2023-07-16T16:11:03.232Z,98522.03
2023-07-16T16:13:30.753Z,98511.09
2023-07-16T16:15:57.784Z,98518.34
2023-07-16T16:18:25.355Z,98511.09
2023-07-16T16:20:52.838Z,98509.41
2023-07-16T16:23:19.769Z,98517.47
2023-07-16T16:28:16.547Z,98519.94
2023-07-16T16:30:44.218Z,98518.38
2023-07-16T16:33:12.356Z,98514.34
2023-07-16T16:35:43.621Z,98512.69
2023-07-16T16:38:11.534Z,98515.16
2023-07-16T16:40:43.178Z,98515.94
2023-07-16T16:43:10.956Z,98512.31
2023-07-16T16:45:43.526Z,98523.22
2023-07-16T16:48:11.231Z,98506.25
2023-07-16T16:50:38.942Z,98510.31
2023-07-16T16:53:06.911Z,98507.06
2023-07-16T16:55:34.349Z,98509.53
2023-07-16T16:58:01.698Z,98500.66
2023-07-16T17:00:28.980Z,98505.97
2023-07-16T17:02:56.357Z,98501.53
2023-07-16T17:05:25.254Z,98498.34
2023-07-16T17:07:53.156Z,98495.59
2023-07-16T17:10:20.829Z,98495.22
2023-07-16T17:12:47.912Z,98498.03
2023-07-16T17:15:15.626Z,98500.94
2023-07-16T17:17:42.560Z,98499.34
2023-07-16T17:20:13.384Z,98502.25
2023-07-16T17:22:42.342Z,98499.03
2023-07-16T17:25:10.297Z,98501.94
2023-07-16T17:27:38.179Z,98497.59
2023-07-16T17:30:07.628Z,98490.75
2023-07-16T17:32:34.892Z,98497.28
2023-07-16T17:35:02.430Z,98501.06
2023-07-16T17:37:29.364Z,98503.16
2023-07-16T17:39:56.215Z,98503.22
2023-07-16T17:42:25.774Z,98501.69
2023-07-16T17:44:55.524Z,98513.47
2023-07-16T17:47:23.740Z,98517.66
2023-07-16T17:49:51.463Z,98521.03
2023-07-16T17:52:18.545Z,98532.13
2023-07-16T17:54:46.381Z,98518.94
2023-07-16T17:57:14.029Z,98519.91
2023-07-16T17:59:40.970Z,98529.31
2023-07-16T18:02:08.328Z,98519.78
2023-07-16T18:04:35.308Z,98528.44
2023-07-16T18:07:02.404Z,98530.19
2023-07-16T18:09:29.546Z,98529.50
2023-07-16T18:11:57.532Z,98532.91
2023-07-16T18:14:24.514Z,98534.28
2023-07-16T18:16:51.819Z,98527.12
2023-07-16T18:19:19.752Z,98537.75
2023-07-16T18:22:03.268Z,98539.44
2023-07-16T18:24:38.677Z,98549.66
2023-07-16T18:27:08.519Z,98549.75
2023-07-16T18:29:35.330Z,98550.66
2023-07-16T18:32:02.717Z,98553.16
2023-07-16T18:34:30.184Z,98557.69
2023-07-16T18:36:56.972Z,98558.22
2023-07-16T18:39:24.051Z,98550.63
2023-07-16T18:41:51.652Z,98554.31
2023-07-16T18:44:19.108Z,98545.91
2023-07-16T18:46:46.617Z,98548.00
2023-07-16T18:49:14.582Z,98557.31
2023-07-16T18:51:42.942Z,98551.72
2023-07-16T18:54:10.765Z,98552.56
2023-07-16T18:56:39.887Z,98548.97
2023-07-16T18:59:07.609Z,98559.91
2023-07-16T19:01:35.018Z,98563.53
2023-07-16T19:04:03.216Z,98564.00
2023-07-16T19:06:30.885Z,98564.03
2023-07-16T19:08:58.826Z,98562.81
2023-07-16T19:11:27.522Z,98564.47
2023-07-16T19:13:57.188Z,98557.25
2023-07-16T19:16:24.863Z,98559.69
2023-07-16T19:18:52.434Z,98562.91
2023-07-16T19:21:19.754Z,98559.66
2023-07-16T19:23:46.752Z,98554.84
2023-07-16T19:26:13.867Z,98552.47
2023-07-16T19:28:43.843Z,98556.06
2023-07-16T19:31:11.696Z,98560.09
2023-07-16T19:33:39.093Z,98561.69
2023-07-16T19:36:14.391Z,98562.91
2023-07-16T19:38:42.948Z,98561.28
2023-07-16T19:41:10.989Z,98563.66
2023-07-16T19:43:38.244Z,98561.59
2023-07-16T19:46:06.964Z,98561.19
2023-07-16T19:48:35.627Z,98570.44
2023-07-16T19:51:05.576Z,98564.81
2023-07-16T19:53:32.560Z,98561.16
2023-07-16T19:56:00.807Z,98562.75
2023-07-16T19:58:28.187Z,98558.72
2023-07-16T20:00:55.529Z,98555.88
2023-07-16T20:03:23.424Z,98561.84
2023-07-16T20:05:51.059Z,98555.88
2023-07-16T20:08:19.358Z,98562.25
2023-07-16T20:10:48.928Z,98561.44
2023-07-16T20:13:17.561Z,98560.53
2023-07-16T20:15:45.371Z,98567.34
2023-07-16T20:18:15.248Z,98570.53
2023-07-16T20:20:43.581Z,98575.31
2023-07-16T20:23:12.425Z,98580.44
2023-07-16T20:25:41.647Z,98576.00
2023-07-16T20:28:11.376Z,98565.16
2023-07-16T20:30:38.457Z,98557.09
2023-07-16T20:33:05.765Z,98560.66
2023-07-16T20:35:32.937Z,98561.41
2023-07-16T20:38:03.111Z,98564.59
2023-07-16T20:40:35.537Z,98562.53
2023-07-16T20:43:03.795Z,98570.06
2023-07-16T20:45:31.701Z,98560.78
2023-07-16T20:48:01.073Z,98555.97
2023-07-16T20:50:32.714Z,98554.31
2023-07-16T20:53:00.524Z,98562.25
2023-07-16T20:55:29.337Z,98563.47
2023-07-16T20:57:56.865Z,98563.44
2023-07-16T21:00:26.125Z,98561.37
2023-07-16T21:02:55.578Z,98560.13
2023-07-16T21:05:24.361Z,98565.28
2023-07-16T21:07:51.900Z,98563.62
2023-07-16T21:10:25.290Z,98562.78
2023-07-16T21:12:53.980Z,98563.53
2023-07-16T21:15:22.411Z,98565.84
2023-07-16T21:17:49.483Z,98562.56
2023-07-16T21:20:16.662Z,98561.69
2023-07-16T21:22:43.641Z,98561.28
2023-07-16T21:25:11.209Z,98560.44
2023-07-16T21:27:49.754Z,98568.37
2023-07-16T21:30:16.979Z,98563.09
2023-07-16T21:32:45.505Z,98570.22
2023-07-16T21:35:12.492Z,98568.16
2023-07-16T21:37:39.398Z,98568.50
2023-07-16T21:40:07.907Z,98565.63
2023-07-16T21:42:35.270Z,98566.75
2023-07-16T21:45:02.821Z,98569.13
2023-07-16T21:47:29.812Z,98580.22
2023-07-16T21:49:56.717Z,98576.53
2023-07-16T21:52:23.528Z,98570.88
2023-07-16T21:54:50.423Z,98575.63
2023-07-16T21:57:18.391Z,98585.53
2023-07-16T21:59:45.227Z,98585.88
2023-07-16T22:02:12.121Z,98585.38
2023-07-16T22:04:39.018Z,98587.69
2023-07-16T22:07:06.675Z,98577.22
2023-07-16T22:09:33.888Z,98582.72
2023-07-16T22:12:01.295Z,98588.31
2023-07-16T22:14:28.835Z,98585.84
2023-07-16T22:16:56.736Z,98579.34
2023-07-16T22:19:32.271Z,98586.47
2023-07-16T22:22:01.225Z,98580.81
2023-07-16T22:24:28.419Z,98579.97
2023-07-16T22:26:55.330Z,98575.87
2023-07-16T22:29:22.205Z,98576.16
2023-07-16T22:31:49.194Z,98573.31
2023-07-16T22:34:17.328Z,98576.44
2023-07-16T22:36:45.283Z,98581.16
2023-07-16T22:39:13.269Z,98581.91
2023-07-16T22:41:40.661Z,98579.44
2023-07-16T22:44:07.638Z,98580.94
2023-07-16T22:46:34.513Z,98579.25
2023-07-16T22:49:01.406Z,98585.97
2023-07-16T22:51:28.361Z,98577.09
2023-07-16T22:53:55.258Z,98571.81
2023-07-16T22:56:23.999Z,98562.53
2023-07-16T22:58:50.789Z,98571.66
2023-07-16T23:01:17.882Z,98566.03
2023-07-16T23:03:45.623Z,98571.97
2023-07-16T23:06:12.476Z,98569.50
2023-07-16T23:08:39.328Z,98563.84
2023-07-16T23:11:06.352Z,98570.53
2023-07-16T23:13:33.290Z,98557.66
2023-07-16T23:16:00.286Z,98553.28
2023-07-16T23:18:27.234Z,98562.75
2023-07-16T23:20:55.246Z,98562.31
2023-07-16T23:23:22.890Z,98562.97
2023-07-16T23:25:50.988Z,98564.50
2023-07-16T23:28:18.679Z,98557.22
2023-07-16T23:30:47.211Z,98555.91
2023-07-16T23:33:14.735Z,98557.44
2023-07-16T23:35:41.795Z,98546.59
2023-07-16T23:38:08.993Z,98552.09
2023-07-16T23:40:35.962Z,98552.03
2023-07-16T23:43:02.787Z,98551.94
2023-07-16T23:45:29.766Z,98555.81
2023-07-16T23:47:56.731Z,98553.34
2023-07-16T23:50:23.574Z,98554.06
2023-07-16T23:52:52.747Z,98555.97
2023-07-16T23:55:19.976Z,98566.25
2023-07-16T23:57:46.875Z,98557.78
